Burnham, Maine
Current Conditions -  °F | °C
As of 5:35 AM on Sunday 26 Oct 2014 (Local Time) from KWVL Reporting Station
Overcast Overcast  
Wind Chill: 43°   Ceiling: Unl
Heat Index: 43°   Visibility: 0mi
Dew Point: 37°   Wind: 0mph
Humidity: 81%   Direction: NA
Pressure: 29.35"   Gusts: NA
Location:  44.69°N, 69.43°W
Report Text: KWVL 260935Z 00000KT M1/4SM VV000 06/03 A2935 RMK AO1
Loading
Personal Weather Stations






























Interactive Weather Map New forecast layout! Learn more

10-Day Weather Forecast

Advertisements
Track Severe Weather on mobile